createdAt,value
2018-04-11T00:00:05.913Z,6.67
2018-04-11T00:02:33.445Z,7.80
2018-04-11T00:05:01.010Z,12.60
2018-04-11T00:07:28.556Z,7.67
2018-04-11T00:09:56.119Z,12.20
2018-04-11T00:12:23.714Z,11.40
2018-04-11T00:14:51.285Z,7.80
2018-04-11T00:17:19.134Z,8.13
2018-04-11T00:19:46.708Z,6.90
2018-04-11T00:22:14.259Z,12.70
2018-04-11T00:24:41.818Z,8.03
2018-04-11T00:27:09.349Z,6.23
2018-04-11T00:29:36.931Z,18.83
2018-04-11T00:32:04.472Z,10.83
2018-04-11T00:34:32.038Z,9.40
2018-04-11T00:36:59.569Z,8.00
2018-04-11T00:39:27.116Z,10.00
2018-04-11T00:41:54.648Z,14.03
2018-04-11T00:44:22.982Z,9.17
2018-04-11T00:46:50.527Z,11.77
2018-04-11T00:49:18.092Z,5.60
2018-04-11T00:51:45.632Z,8.97
2018-04-11T00:54:13.155Z,6.67
2018-04-11T00:56:41.651Z,7.77
2018-04-11T00:59:09.960Z,7.47
2018-04-11T01:01:37.514Z,8.50
2018-04-11T01:04:06.847Z,8.50
2018-04-11T01:06:34.411Z,13.57
2018-04-11T01:09:01.964Z,7.07
2018-04-11T01:11:29.527Z,9.07
2018-04-11T01:13:57.074Z,10.63
2018-04-11T01:16:24.635Z,6.47
2018-04-11T01:18:52.159Z,13.93
2018-04-11T01:21:19.723Z,7.73
2018-04-11T01:23:47.275Z,8.40
2018-04-11T01:26:14.846Z,18.60
2018-04-11T01:28:42.383Z,6.40
2018-04-11T01:31:09.939Z,9.90
2018-04-11T01:33:38.419Z,15.53
2018-04-11T01:36:06.737Z,13.67
2018-04-11T01:38:34.289Z,15.90
2018-04-11T01:41:01.857Z,8.87
2018-04-11T01:43:29.409Z,13.27
2018-04-11T01:45:56.983Z,13.93
2018-04-11T01:48:24.531Z,10.13
2018-04-11T01:50:52.071Z,8.03
2018-04-11T01:53:19.637Z,12.93
2018-04-11T01:55:47.203Z,15.80
2018-04-11T01:58:16.572Z,14.20
2018-04-11T02:00:44.107Z,6.17
2018-04-11T02:03:11.652Z,13.70
2018-04-11T02:05:39.206Z,9.10
2018-04-11T02:08:06.759Z,8.97
2018-04-11T02:10:34.293Z,10.53
2018-04-11T02:13:01.839Z,9.50
2018-04-11T02:15:30.136Z,13.60
2018-04-11T02:17:57.691Z,11.40
2018-04-11T02:20:25.216Z,8.00
2018-04-11T02:22:53.539Z,14.33
2018-04-11T02:25:21.119Z,15.50
2018-04-11T02:27:48.684Z,10.70
2018-04-11T02:30:16.222Z,9.57
2018-04-11T02:32:43.804Z,10.07
2018-04-11T02:35:11.344Z,11.93
2018-04-11T02:37:38.924Z,9.90
2018-04-11T02:40:06.474Z,8.20
2018-04-11T02:42:34.091Z,9.90
2018-04-11T02:45:01.623Z,8.43
2018-04-11T02:47:29.180Z,21.17
2018-04-11T02:49:56.735Z,11.77
2018-04-11T02:52:25.109Z,11.47
2018-04-11T02:54:52.650Z,13.73
2018-04-11T02:57:20.230Z,11.03
2018-04-11T02:59:49.266Z,15.20
2018-04-11T03:02:16.838Z,18.47
2018-04-11T03:04:44.371Z,8.20
2018-04-11T03:07:12.948Z,11.50
2018-04-11T03:09:40.456Z,14.30
2018-04-11T03:12:08.037Z,11.20
2018-04-11T03:14:35.582Z,13.07
2018-04-11T03:17:03.203Z,11.53
2018-04-11T03:19:30.753Z,11.80
2018-04-11T03:21:59.089Z,17.10
2018-04-11T03:24:26.620Z,15.33
2018-04-11T03:26:54.953Z,11.00
2018-04-11T03:29:23.248Z,12.40
2018-04-11T03:31:50.824Z,15.83
2018-04-11T03:34:18.379Z,14.50
2018-04-11T03:36:45.956Z,15.10
2018-04-11T03:39:13.503Z,14.60
2018-04-11T03:41:41.070Z,12.93
2018-04-11T03:44:08.611Z,13.00
2018-04-11T03:46:36.196Z,10.27
2018-04-11T03:49:03.868Z,13.80
2018-04-11T03:51:31.440Z,13.83
2018-04-11T03:53:58.975Z,13.20
2018-04-11T03:56:26.552Z,10.37
2018-04-11T03:58:54.300Z,14.77
2018-04-11T04:01:21.868Z,10.57
2018-04-11T04:03:49.408Z,12.53
2018-04-11T04:06:17.396Z,16.00
2018-04-11T04:08:44.953Z,18.57
2018-04-11T04:11:12.488Z,24.93
2018-04-11T04:13:51.971Z,20.97
2018-04-11T04:16:31.918Z,12.00
2018-04-11T04:19:11.571Z,17.80
2018-04-11T04:21:39.510Z,18.57
2018-04-11T04:24:09.708Z,10.10
2018-04-11T04:26:37.243Z,11.73
2018-04-11T04:29:04.819Z,15.30
2018-04-11T04:31:32.348Z,14.77
2018-04-11T04:34:00.124Z,13.00
2018-04-11T04:36:28.436Z,17.10
2018-04-11T04:38:56.016Z,10.43
2018-04-11T04:41:23.573Z,10.23
2018-04-11T04:43:51.262Z,16.20
2018-04-11T04:46:19.555Z,15.00
2018-04-11T04:48:47.137Z,18.30
2018-04-11T04:51:14.927Z,14.67
2018-04-11T04:53:42.479Z,17.53
2018-04-11T04:56:10.024Z,14.00
2018-04-11T04:58:37.587Z,17.17
2018-04-11T05:01:05.119Z,11.90
2018-04-11T05:03:32.689Z,13.53
2018-04-11T05:06:00.999Z,15.93
2018-04-11T05:08:28.576Z,15.23
2018-04-11T05:10:56.114Z,13.30
2018-04-11T05:13:24.008Z,27.23
2018-04-11T05:15:51.743Z,29.67
2018-04-11T05:18:19.532Z,23.53
2018-04-11T05:20:47.076Z,28.63
2018-04-11T05:23:14.643Z,21.20
2018-04-11T05:25:42.204Z,48.27
2018-04-11T05:28:09.801Z,22.00
2018-04-11T05:30:38.103Z,17.90
2018-04-11T05:33:06.219Z,20.20
2018-04-11T05:35:33.788Z,11.10
2018-04-11T05:38:02.098Z,35.80
2018-04-11T05:40:29.699Z,17.63
2018-04-11T05:42:57.279Z,27.23
2018-04-11T05:45:24.916Z,24.97
2018-04-11T05:47:52.478Z,22.33
2018-04-11T05:50:20.308Z,31.77
2018-04-11T05:52:48.624Z,17.57
2018-04-11T05:55:16.243Z,25.30
2018-04-11T05:57:43.809Z,21.77
2018-04-11T06:00:11.368Z,29.47
2018-04-11T06:02:39.687Z,23.00
2018-04-11T06:05:07.539Z,30.50
2018-04-11T06:07:35.103Z,24.50
2018-04-11T06:10:02.659Z,21.97
2018-04-11T06:12:30.247Z,25.57
2018-04-11T06:14:57.816Z,30.00
2018-04-11T06:17:25.380Z,24.43
2018-04-11T06:19:52.929Z,35.43
2018-04-11T06:22:20.516Z,27.33
2018-04-11T06:24:48.825Z,26.63
2018-04-11T06:27:16.395Z,21.13
2018-04-11T06:29:43.934Z,17.30
2018-04-11T06:32:12.352Z,26.63
2018-04-11T06:34:39.889Z,25.63
2018-04-11T06:37:07.455Z,34.47
2018-04-11T06:39:35.023Z,23.40
2018-04-11T06:42:02.606Z,30.07
2018-04-11T06:44:30.145Z,27.70
2018-04-11T06:46:57.711Z,21.43
2018-04-11T06:49:25.314Z,27.47
2018-04-11T06:51:52.845Z,27.80
2018-04-11T06:54:20.545Z,28.70
2018-04-11T06:56:48.956Z,34.37
2018-04-11T06:59:16.542Z,21.10
2018-04-11T07:01:44.347Z,32.60
2018-04-11T07:04:12.673Z,21.70
2018-04-11T07:06:40.259Z,26.87
2018-04-11T07:09:07.795Z,28.57
2018-04-11T07:11:35.452Z,26.83
2018-04-11T07:14:03.033Z,21.67
2018-04-11T07:16:30.649Z,22.20
2018-04-11T07:18:58.171Z,29.07
2018-04-11T07:21:25.704Z,23.87
2018-04-11T07:23:53.354Z,36.57
2018-04-11T07:26:20.890Z,27.27
2018-04-11T07:28:48.477Z,32.97
2018-04-11T07:31:16.027Z,25.07
2018-04-11T07:33:43.561Z,30.77
2018-04-11T07:36:11.140Z,34.73
2018-04-11T07:38:38.693Z,26.07
2018-04-11T07:41:06.277Z,31.60
2018-04-11T07:43:33.820Z,26.63
2018-04-11T07:46:01.414Z,29.50
2018-04-11T07:48:28.953Z,28.20
2018-04-11T07:50:56.561Z,40.17
2018-04-11T07:53:24.881Z,31.17
2018-04-11T07:55:52.440Z,33.17
2018-04-11T07:58:20.043Z,27.80
2018-04-11T08:00:47.899Z,33.37
2018-04-11T08:03:15.712Z,37.07
2018-04-11T08:05:43.229Z,29.13
2018-04-11T08:08:10.777Z,30.73
2018-04-11T08:10:38.344Z,32.93
2018-04-11T08:13:05.915Z,32.00
2018-04-11T08:15:34.248Z,30.00
2018-04-11T08:18:01.833Z,27.17
2018-04-11T08:20:29.384Z,21.90
2018-04-11T08:22:56.951Z,23.97
2018-04-11T08:25:24.532Z,20.10
2018-04-11T08:27:52.099Z,25.40
2018-04-11T08:30:20.414Z,34.83
2018-04-11T08:32:47.989Z,20.13
2018-04-11T08:35:15.525Z,27.60
2018-04-11T08:37:43.071Z,23.80
2018-04-11T08:40:10.583Z,24.23
2018-04-11T08:42:38.151Z,25.50
2018-04-11T08:45:05.727Z,38.60
2018-04-11T08:47:33.368Z,19.33
2018-04-11T08:50:00.911Z,27.53
2018-04-11T08:52:28.542Z,18.97
2018-04-11T08:54:56.076Z,25.30
2018-04-11T08:57:23.663Z,19.93
2018-04-11T08:59:51.236Z,23.27
2018-04-11T09:02:18.774Z,28.43
2018-04-11T09:04:46.337Z,23.63
2018-04-11T09:07:13.870Z,14.10
2018-04-11T09:09:42.228Z,24.83
2018-04-11T09:12:09.889Z,19.00
2018-04-11T09:14:37.473Z,18.67
2018-04-11T09:17:05.763Z,17.30
2018-04-11T09:19:33.393Z,21.03
2018-04-11T09:22:00.987Z,25.77
2018-04-11T09:24:28.739Z,23.90
2018-04-11T09:26:57.046Z,15.30
2018-04-11T09:29:24.624Z,16.83
2018-04-11T09:31:52.259Z,27.30
2018-04-11T09:34:19.773Z,25.70
2018-04-11T09:36:47.318Z,27.10
2018-04-11T09:39:14.884Z,12.30
2018-04-11T09:41:42.420Z,22.90
2018-04-11T09:44:10.144Z,22.90
2018-04-11T09:46:37.710Z,25.40
2018-04-11T09:49:05.379Z,22.37
2018-04-11T09:51:32.956Z,27.10
2018-04-11T09:54:00.502Z,35.33
2018-04-11T09:56:28.093Z,19.27
2018-04-11T09:58:55.651Z,20.70
2018-04-11T10:01:23.221Z,22.53
2018-04-11T10:03:50.914Z,33.37
2018-04-11T10:06:19.348Z,24.53
2018-04-11T10:08:46.923Z,22.23
2018-04-11T10:11:14.720Z,20.43
2018-04-11T10:13:43.126Z,22.67
2018-04-11T10:16:10.711Z,19.43
2018-04-11T10:18:38.453Z,16.33
2018-04-11T10:21:06.039Z,26.40
2018-04-11T10:23:33.611Z,24.03
2018-04-11T10:26:01.184Z,22.63
2018-04-11T10:28:28.750Z,16.03
2018-04-11T10:30:57.082Z,16.97
2018-04-11T10:33:24.643Z,15.10
2018-04-11T10:35:52.501Z,18.77
2018-04-11T10:38:20.048Z,27.63
2018-04-11T10:40:47.593Z,16.17
2018-04-11T10:43:15.277Z,22.40
2018-04-11T10:45:42.829Z,22.10
2018-04-11T10:48:10.398Z,24.30
2018-04-11T10:50:37.938Z,15.03
2018-04-11T10:53:05.528Z,13.43
2018-04-11T10:55:33.074Z,17.10
2018-04-11T10:58:00.672Z,13.17
2018-04-11T11:00:28.203Z,14.60
2018-04-11T11:02:55.770Z,22.70
2018-04-11T11:05:23.319Z,14.20
2018-04-11T11:07:50.954Z,11.50
2018-04-11T11:10:18.496Z,14.60
2018-04-11T11:12:46.060Z,13.77
2018-04-11T11:15:14.359Z,24.20
2018-04-11T11:17:41.932Z,51.27
2018-04-11T11:20:09.468Z,19.30
2018-04-11T11:22:37.041Z,13.20
2018-04-11T11:25:04.585Z,17.63
2018-04-11T11:27:33.192Z,10.90
2018-04-11T11:30:00.765Z,13.17
2018-04-11T11:32:28.299Z,13.57
2018-04-11T11:34:55.861Z,8.43
2018-04-11T11:37:23.441Z,11.17
2018-04-11T11:39:51.035Z,13.50
2018-04-11T11:42:19.349Z,21.10
2018-04-11T11:44:46.925Z,15.30
2018-04-11T11:47:14.466Z,12.60
2018-04-11T11:49:42.029Z,16.43
2018-04-11T11:52:09.584Z,10.73
2018-04-11T11:54:37.883Z,11.07
2018-04-11T11:57:05.429Z,9.63
2018-04-11T11:59:33.010Z,12.03
2018-04-11T12:02:00.568Z,15.17
2018-04-11T12:04:28.139Z,14.40
2018-04-11T12:06:55.758Z,15.77
2018-04-11T12:09:23.304Z,9.37
2018-04-11T12:11:51.631Z,10.20
2018-04-11T12:14:19.200Z,12.03
2018-04-11T12:16:46.736Z,12.87
2018-04-11T12:19:14.296Z,11.87
2018-04-11T12:21:41.832Z,9.77
2018-04-11T12:24:10.300Z,7.90
2018-04-11T12:26:38.598Z,9.50
2018-04-11T12:29:06.141Z,8.67
2018-04-11T12:31:35.080Z,23.67
2018-04-11T12:34:02.646Z,11.90
2018-04-11T12:36:30.217Z,9.70
2018-04-11T12:38:57.771Z,9.53
2018-04-11T12:41:25.363Z,8.70
2018-04-11T12:43:53.891Z,10.07
2018-04-11T12:46:21.433Z,12.90
2018-04-11T12:48:49.032Z,16.57
2018-04-11T12:51:16.644Z,9.83
2018-04-11T12:53:44.232Z,8.90
2018-04-11T12:56:11.760Z,9.63
2018-04-11T12:58:42.123Z,9.07
2018-04-11T13:01:09.679Z,10.00
2018-04-11T13:03:37.248Z,8.40
2018-04-11T13:06:04.798Z,7.80
2018-04-11T13:08:32.452Z,11.10
2018-04-11T13:11:00.146Z,12.93
2018-04-11T13:13:27.715Z,9.20
2018-04-11T13:15:55.256Z,11.40
2018-04-11T13:18:23.102Z,11.90
2018-04-11T13:20:50.617Z,7.00
2018-04-11T13:23:18.188Z,9.70
2018-04-11T13:25:46.508Z,13.00
2018-04-11T13:28:14.092Z,10.57
2018-04-11T13:30:41.631Z,13.60
2018-04-11T13:33:09.271Z,9.80
2018-04-11T13:35:36.823Z,12.10
2018-04-11T13:38:04.391Z,9.00
2018-04-11T13:40:31.935Z,10.37
2018-04-11T13:42:59.521Z,8.73
2018-04-11T13:45:27.062Z,12.60
2018-04-11T13:47:54.633Z,7.97
2018-04-11T13:50:22.181Z,8.40
2018-04-11T13:52:50.477Z,10.23
2018-04-11T13:55:18.031Z,12.17
2018-04-11T13:57:45.798Z,9.97
2018-04-11T14:00:13.328Z,19.07
2018-04-11T14:02:40.892Z,11.37
2018-04-11T14:05:08.425Z,9.77
2018-04-11T14:07:36.764Z,8.80
2018-04-11T14:10:04.328Z,9.63
2018-04-11T14:12:31.869Z,8.67
2018-04-11T14:14:59.435Z,13.10
2018-04-11T14:17:26.981Z,10.57
2018-04-11T14:19:54.559Z,12.97
2018-04-11T14:22:22.109Z,9.20
2018-04-11T14:24:49.686Z,8.00
2018-04-11T14:27:17.228Z,14.03
2018-04-11T14:29:44.808Z,8.13
2018-04-11T14:32:12.509Z,11.70
2018-04-11T14:34:40.852Z,11.83
2018-04-11T14:37:08.405Z,10.80
2018-04-11T14:39:36.113Z,9.00
2018-04-11T14:42:04.410Z,9.00
2018-04-11T14:44:32.182Z,10.20
2018-04-11T14:47:00.467Z,12.27
2018-04-11T14:49:28.159Z,18.93
2018-04-11T14:51:55.696Z,9.17
2018-04-11T14:54:23.274Z,7.53
2018-04-11T14:56:50.827Z,6.67
2018-04-11T14:59:18.400Z,8.23
2018-04-11T15:01:45.976Z,27.33
2018-04-11T15:04:13.540Z,7.03
2018-04-11T15:06:41.852Z,6.13
2018-04-11T15:09:09.424Z,7.17
2018-04-11T15:11:36.963Z,8.63
2018-04-11T15:14:05.257Z,5.97
2018-04-11T15:16:32.821Z,14.93
2018-04-11T15:19:00.411Z,7.33
2018-04-11T15:21:27.989Z,6.90
2018-04-11T15:23:55.765Z,8.27
2018-04-11T15:26:23.379Z,12.27
2018-04-11T15:28:50.928Z,18.90
2018-04-11T15:31:18.484Z,7.63
2018-04-11T15:33:46.087Z,11.03
2018-04-11T15:36:13.665Z,10.03
2018-04-11T15:38:41.208Z,10.20
2018-04-11T15:41:08.797Z,14.57
2018-04-11T15:43:36.339Z,11.13
2018-04-11T15:49:05.290Z,19.23
2018-04-11T15:51:32.868Z,8.43
2018-04-11T15:54:00.432Z,9.57
2018-04-11T15:56:28.128Z,13.40
2018-04-11T15:58:55.957Z,9.53
2018-04-11T16:01:23.711Z,13.10
2018-04-11T16:03:51.396Z,11.70
2018-04-11T16:06:19.766Z,10.77
2018-04-11T16:08:47.302Z,8.57
2018-04-11T16:11:14.876Z,12.63
2018-04-11T16:13:42.440Z,8.63
2018-04-11T16:16:10.024Z,12.23
2018-04-11T16:18:37.819Z,10.83
2018-04-11T16:21:06.184Z,13.50
2018-04-11T16:23:33.751Z,8.30
2018-04-11T16:26:02.100Z,12.97
2018-04-11T16:28:29.638Z,8.13
2018-04-11T16:30:57.241Z,14.80
2018-04-11T16:33:24.791Z,11.30
2018-04-11T16:35:52.359Z,14.97
2018-04-11T16:38:19.921Z,7.43
2018-04-11T16:40:48.275Z,13.00
2018-04-11T16:43:15.834Z,8.93
2018-04-11T16:45:45.187Z,11.43
2018-04-11T16:48:12.829Z,10.47
2018-04-11T16:50:41.343Z,16.67
2018-04-11T16:53:08.908Z,12.47
2018-04-11T16:55:36.490Z,11.73
2018-04-11T16:58:04.398Z,10.77
2018-04-11T17:00:31.978Z,12.23
2018-04-11T17:02:59.574Z,19.57
2018-04-11T17:05:27.149Z,21.60
2018-04-11T17:07:54.759Z,17.00
2018-04-11T17:10:22.346Z,20.30
2018-04-11T17:12:50.729Z,12.10
2018-04-11T17:15:18.336Z,15.33
2018-04-11T17:17:47.021Z,16.33
2018-04-11T17:20:15.440Z,20.80
2018-04-11T17:22:54.900Z,17.60
2018-04-11T17:25:34.211Z,13.73
2018-04-11T17:28:27.319Z,13.23
2018-04-11T17:33:51.766Z,7.97
2018-04-11T17:36:19.336Z,14.40
2018-04-11T17:38:46.891Z,11.67
2018-04-11T17:41:14.535Z,14.13
2018-04-11T17:43:42.114Z,11.53
2018-04-11T17:46:09.669Z,15.33
2018-04-11T17:48:37.257Z,8.63
2018-04-11T17:51:04.805Z,9.97
2018-04-11T17:53:32.429Z,9.77
2018-04-11T17:56:00.007Z,17.37
2018-04-11T17:58:27.620Z,10.13
2018-04-11T18:00:55.175Z,11.63
2018-04-11T18:03:22.777Z,10.17
2018-04-11T18:05:50.324Z,16.43
2018-04-11T18:08:17.978Z,14.23
2018-04-11T18:10:45.515Z,17.93
2018-04-11T18:13:13.177Z,11.07
2018-04-11T18:15:40.892Z,15.63
2018-04-11T18:18:08.724Z,15.20
2018-04-11T18:20:36.290Z,12.43
2018-04-11T18:23:04.060Z,12.17
2018-04-11T18:25:32.374Z,12.33
2018-04-11T18:28:00.112Z,9.93
2018-04-11T18:30:27.697Z,14.87
2018-04-11T18:32:55.429Z,16.83
2018-04-11T18:35:23.006Z,10.50
2018-04-11T18:37:50.559Z,10.80
2018-04-11T18:40:18.153Z,10.27
2018-04-11T18:42:45.772Z,12.40
2018-04-11T18:45:14.125Z,15.33
2018-04-11T18:47:42.468Z,17.13
2018-04-11T18:50:10.055Z,12.10
2018-04-11T18:52:38.387Z,14.70
2018-04-11T18:55:06.010Z,16.33
2018-04-11T18:57:33.881Z,16.50
2018-04-11T19:00:01.473Z,12.80
2018-04-11T19:02:29.083Z,17.47
2018-04-11T19:04:56.677Z,13.13
2018-04-11T19:07:24.303Z,18.37
2018-04-11T19:09:51.892Z,12.60
2018-04-11T19:12:20.264Z,10.20
2018-04-11T19:14:47.870Z,15.03
2018-04-11T19:17:15.473Z,13.67
2018-04-11T19:19:43.143Z,11.50
2018-04-11T19:22:10.956Z,14.93
2018-04-11T19:24:38.716Z,13.27
2018-04-11T19:27:06.321Z,10.60
2018-04-11T19:29:33.851Z,10.90
2018-04-11T19:32:01.462Z,18.20
2018-04-11T19:34:29.778Z,13.63
2018-04-11T19:36:57.341Z,19.27
2018-04-11T19:39:25.057Z,19.63
2018-04-11T19:41:53.486Z,12.97
2018-04-11T19:44:21.150Z,12.40
2018-04-11T19:46:48.707Z,13.30
2018-04-11T19:49:16.463Z,15.10
2018-04-11T19:51:44.015Z,10.27
2018-04-11T19:54:11.609Z,12.70
2018-04-11T19:56:39.357Z,12.67
2018-04-11T19:59:07.180Z,19.03
2018-04-11T20:01:42.293Z,16.10
2018-04-11T20:04:09.917Z,16.87
2018-04-11T20:06:37.536Z,19.43
2018-04-11T20:09:05.929Z,19.67
2018-04-11T20:11:33.608Z,25.00
2018-04-11T20:14:01.219Z,27.40
2018-04-11T20:16:28.796Z,29.00
2018-04-11T20:18:57.216Z,25.20
2018-04-11T20:21:24.832Z,25.93
2018-04-11T20:23:52.452Z,26.57
2018-04-11T20:26:20.004Z,24.30
2018-04-11T20:28:47.609Z,29.77
2018-04-11T20:31:15.164Z,32.00
2018-04-11T20:33:43.639Z,32.57
2018-04-11T20:36:11.209Z,26.77
2018-04-11T20:38:38.788Z,26.20
2018-04-11T20:41:07.096Z,25.33
2018-04-11T20:43:34.787Z,46.73
2018-04-11T20:46:02.341Z,23.73
2018-04-11T20:48:29.936Z,27.10
2018-04-11T20:50:57.492Z,30.00
2018-04-11T20:53:25.832Z,26.87
2018-04-11T20:55:53.385Z,23.10
2018-04-11T20:58:20.967Z,24.70
2018-04-11T21:00:48.808Z,36.10
2018-04-11T21:03:16.419Z,36.17
2018-04-11T21:05:44.743Z,37.60
2018-04-11T21:08:12.460Z,42.03
2018-04-11T21:10:40.012Z,40.90
2018-04-11T21:13:08.369Z,43.50
2018-04-11T21:15:35.932Z,35.20
2018-04-11T21:18:03.652Z,45.13
2018-04-11T21:20:31.213Z,36.50
2018-04-11T21:22:58.799Z,46.43
2018-04-11T21:25:26.512Z,43.93
2018-04-11T21:27:54.106Z,36.30
2018-04-11T21:30:21.695Z,35.50
2018-04-11T21:32:49.264Z,40.97
2018-04-11T21:35:16.817Z,40.80
2018-04-11T21:37:44.837Z,43.43
2018-04-11T21:40:12.411Z,36.33
2018-04-11T21:42:40.016Z,35.10
2018-04-11T21:45:07.533Z,46.37
2018-04-11T21:47:35.103Z,38.90
2018-04-11T21:50:02.673Z,40.90
2018-04-11T21:52:30.250Z,35.83
2018-04-11T21:54:57.802Z,32.50
2018-04-11T21:57:25.384Z,33.40
2018-04-11T21:59:53.904Z,34.97
2018-04-11T22:02:21.517Z,47.50
2018-04-11T22:04:49.059Z,39.10
2018-04-11T22:07:16.813Z,38.77
2018-04-11T22:09:44.356Z,42.73
2018-04-11T22:12:11.972Z,40.03
2018-04-11T22:14:40.303Z,43.43
2018-04-11T22:17:07.849Z,38.73
2018-04-11T22:19:35.512Z,55.77
2018-04-11T22:22:03.044Z,49.90
2018-04-11T22:24:31.377Z,50.47
2018-04-11T22:26:59.168Z,41.27
2018-04-11T22:29:27.507Z,48.83
2018-04-11T22:31:55.043Z,54.17
2018-04-11T22:34:22.630Z,52.50
2018-04-11T22:36:50.183Z,44.77
2018-04-11T22:39:17.745Z,46.70
2018-04-11T22:41:45.293Z,52.40
2018-04-11T22:44:13.110Z,44.33
2018-04-11T22:46:40.889Z,47.33
2018-04-11T22:49:08.475Z,51.87
2018-04-11T22:51:36.012Z,46.30
2018-04-11T22:54:04.683Z,43.33
2018-04-11T22:56:32.992Z,46.70
2018-04-11T22:59:00.566Z,40.67
2018-04-11T23:01:28.279Z,46.80
2018-04-11T23:03:56.631Z,44.47
2018-04-11T23:06:24.207Z,45.20
2018-04-11T23:08:51.799Z,48.30
2018-04-11T23:11:19.340Z,50.57
2018-04-11T23:13:47.689Z,47.57
2018-04-11T23:16:15.236Z,46.40
2018-04-11T23:18:43.073Z,45.00
2018-04-11T23:21:10.612Z,48.13
2018-04-11T23:23:38.928Z,42.60
2018-04-11T23:26:06.507Z,50.73
2018-04-11T23:28:34.047Z,53.10
2018-04-11T23:31:01.617Z,48.27
2018-04-11T23:33:29.231Z,59.47
2018-04-11T23:35:56.997Z,46.27
2018-04-11T23:38:24.555Z,48.80
2018-04-11T23:40:52.119Z,48.40
2018-04-11T23:43:20.427Z,48.33
2018-04-11T23:45:47.996Z,44.20
2018-04-11T23:48:15.540Z,44.90
2018-04-11T23:50:43.148Z,48.53
2018-04-11T23:53:10.688Z,47.77
2018-04-11T23:55:38.263Z,47.70
2018-04-11T23:58:05.775Z,49.53
